Airport View

Enter AWOS ICAO identifier for current METAR.

ex. KFNL

KM25 080340Z AUTO 00000KT 10SM CLR 25/23 A2998 RMK AO2 PWINO

8 Jul 2020 03:26

Frequency: 120.625

Phone: 270-247-2094

Other Area AWOS: KCEY - KPAH - KM30 - KPHT

TAF KPAH 072333Z 0800/0824 VRB03KT P6SM FEW060 FEW150 FM080200 00000KT P6SM FEW200 FM081700 VRB04KT P6SM VCTS BKN040CB FM082100 VRB03KT P6SM SCT090